Chem Antares — V7GU2 — position and weather

sailwx.info

Track history (hours):
 
Tides and Currents Weather Stations Pressure Air Temp Water Temp Dewpoint Dewpoint Depression Visibility Wind Speed Wind Dir Waves Ship Positions

Chem Antares

Last reported at 2018-Nov-08 15:43 UTC. Time now 2018-Dec-10 22:34 UTC.
Position N 31°59' W 081°03'.
Warning: this ship's position is 32 days out of date.

Length 144 m; draft 8.1 m.

Type: Tanker. MMSI: 538002174.

Date/timePositionNaut miles runAvg speedWind from/ knotsBaromVisibWave heightAir tempDewpointWater temp
2018-Nov-08 15:43N 31°59' W 081°03'0 0.0
2018-Nov-08 15:31N 31°59' W 081°03'1 1.4
2018-Nov-08 15:03N 31°59' W 081°03'1 3.0
2018-Nov-08 14:33N 31°60' W 081°01'1 2.1
2018-Nov-08 14:02N 32°00' W 081°00'1 1.8
2018-Nov-08 13:31N 31°59' W 081°00'1 2.3
2018-Nov-08 13:02N 31°58' W 081°00'2 3.3
2018-Nov-08 12:31N 31°57' W 080°60'2 4.5
2018-Nov-08 12:02N 31°55' W 080°58'17 1.7
2018-Nov-08 02:03N 31°39' W 081°01'15 3.0
2018-Nov-07 20:52N 31°53' W 080°54'3 6.3
2018-Nov-07 20:28N 31°55' W 080°55'3 6.8
2018-Nov-07 19:57N 31°57' W 080°59'3 6.3
2018-Nov-07 19:32N 31°59' W 081°00'3 6.6
2018-Nov-07 19:02N 32°01' W 081°03'0 0.3
2018-Nov-07 18:31N 32°02' W 081°03'0 0.0
2018-Nov-07 18:01N 32°02' W 081°03'0 0.0
2018-Nov-07 17:31N 32°02' W 081°03'2 4.9
2018-Nov-07 17:02N 32°00' W 081°00'3 5.9
2018-Nov-07 16:32N 31°57' W 081°00'3 6.1
2018-Nov-07 15:58N 31°55' W 080°57'14 5.5
2018-Nov-07 13:28N 31°56' W 080°41'  
2018-Nov-03 20:25N 39°32' W 074°13'3 7.9
2018-Nov-03 20:03N 39°35' W 074°12'0 7.9
2018-Nov-03 20:00N 39°35' W 074°12'4 8.0
2018-Nov-03 19:30N 39°39' W 074°09'3 7.7
2018-Nov-03 19:03N 39°42' W 074°07'1 7.7
2018-Nov-03 18:59N 39°42' W 074°06'3 6.3
2018-Nov-03 18:29N 39°45' W 074°04'3 7.4
2018-Nov-03 18:03N 39°48' W 074°04'0 7.6
2018-Nov-03 18:00N 39°48' W 074°04'42 1.6
2018-Nov-02 15:02N 40°31' W 074°02'0 6.9
2018-Nov-02 14:59N 40°31' W 074°02'4 7.2
2018-Nov-02 14:26N 40°35' W 074°02'3 8.0
2018-Nov-02 14:00N 40°38' W 074°03'4 7.4
2018-Nov-02 13:30N 40°42' W 074°00'4 8.6
2018-Nov-02 13:01N 40°45' W 073°58'64 2.3
2018-Nov-01 09:44N 41°06' W 072°38'2 7.3
2018-Nov-01 09:24N 41°07' W 072°35'3 7.8
2018-Nov-01 09:03N 41°07' W 072°31'2 8.1
2018-Nov-01 08:47N 41°08' W 072°29'2 8.0
2018-Nov-01 08:30N 41°08' W 072°26'4 7.9
2018-Nov-01 08:02N 41°09' W 072°21'  
Track history (hours):
 
Tides and Currents Weather Stations Pressure Air Temp Water Temp Dewpoint Dewpoint Depression Visibility Wind Speed Wind Dir Waves Ship Positions

Chem Antares

Last reported at 2018-Nov-08 15:43 UTC. Time now 2018-Dec-10 22:34 UTC.
Position N 31°59' W 081°03'.
Warning: this ship's position is 32 days out of date.

Length 144 m; draft 8.1 m.

Type: Tanker. MMSI: 538002174.

Date/timePositionNaut miles runAvg speedWind from/ knotsBaromVisibWave heightAir tempDewpointWater temp
2018-Nov-08 15:43N 31°59' W 081°03'0 0.0
2018-Nov-08 15:31N 31°59' W 081°03'1 1.4
2018-Nov-08 15:03N 31°59' W 081°03'1 3.0
2018-Nov-08 14:33N 31°60' W 081°01'1 2.1
2018-Nov-08 14:02N 32°00' W 081°00'1 1.8
2018-Nov-08 13:31N 31°59' W 081°00'1 2.3
2018-Nov-08 13:02N 31°58' W 081°00'2 3.3
2018-Nov-08 12:31N 31°57' W 080°60'2 4.5
2018-Nov-08 12:02N 31°55' W 080°58'17 1.7
2018-Nov-08 02:03N 31°39' W 081°01'15 3.0
2018-Nov-07 20:52N 31°53' W 080°54'3 6.3
2018-Nov-07 20:28N 31°55' W 080°55'3 6.8
2018-Nov-07 19:57N 31°57' W 080°59'3 6.3
2018-Nov-07 19:32N 31°59' W 081°00'3 6.6
2018-Nov-07 19:02N 32°01' W 081°03'0 0.3
2018-Nov-07 18:31N 32°02' W 081°03'0 0.0
2018-Nov-07 18:01N 32°02' W 081°03'0 0.0
2018-Nov-07 17:31N 32°02' W 081°03'2 4.9
2018-Nov-07 17:02N 32°00' W 081°00'3 5.9
2018-Nov-07 16:32N 31°57' W 081°00'3 6.1
2018-Nov-07 15:58N 31°55' W 080°57'14 5.5
2018-Nov-07 13:28N 31°56' W 080°41'  
2018-Nov-03 20:25N 39°32' W 074°13'3 7.9
2018-Nov-03 20:03N 39°35' W 074°12'0 7.9
2018-Nov-03 20:00N 39°35' W 074°12'4 8.0
2018-Nov-03 19:30N 39°39' W 074°09'3 7.7
2018-Nov-03 19:03N 39°42' W 074°07'1 7.7
2018-Nov-03 18:59N 39°42' W 074°06'3 6.3
2018-Nov-03 18:29N 39°45' W 074°04'3 7.4
2018-Nov-03 18:03N 39°48' W 074°04'0 7.6
2018-Nov-03 18:00N 39°48' W 074°04'42 1.6
2018-Nov-02 15:02N 40°31' W 074°02'0 6.9
2018-Nov-02 14:59N 40°31' W 074°02'4 7.2
2018-Nov-02 14:26N 40°35' W 074°02'3 8.0
2018-Nov-02 14:00N 40°38' W 074°03'4 7.4
2018-Nov-02 13:30N 40°42' W 074°00'4 8.6
2018-Nov-02 13:01N 40°45' W 073°58'64 2.3
2018-Nov-01 09:44N 41°06' W 072°38'2 7.3
2018-Nov-01 09:24N 41°07' W 072°35'3 7.8
2018-Nov-01 09:03N 41°07' W 072°31'2 8.1
2018-Nov-01 08:47N 41°08' W 072°29'2 8.0
2018-Nov-01 08:30N 41°08' W 072°26'4 7.9
2018-Nov-01 08:02N 41°09' W 072°21'  

Dump ship's entire track history